sensor_id;sensor_type;location;lat;lon;timestamp;P1;durP1;ratioP1;P2;durP2;ratioP2
75191;SDS011;63771;52.580;9.734;2022-10-16T00:02:21;1.25;;;1.25;;
75191;SDS011;63771;52.580;9.734;2022-10-16T00:04:46;1.53;;;0.90;;
75191;SDS011;63771;52.580;9.734;2022-10-16T00:07:12;1.53;;;1.20;;
75191;SDS011;63771;52.580;9.734;2022-10-16T00:09:37;2.50;;;1.10;;
75191;SDS011;63771;52.580;9.734;2022-10-16T00:12:03;0.98;;;0.98;;
75191;SDS011;63771;52.580;9.734;2022-10-16T00:14:29;2.83;;;1.77;;
75191;SDS011;63771;52.580;9.734;2022-10-16T00:16:55;1.42;;;1.33;;
75191;SDS011;63771;52.580;9.734;2022-10-16T00:19:20;1.25;;;1.25;;
75191;SDS011;63771;52.580;9.734;2022-10-16T00:21:45;1.70;;;1.53;;
75191;SDS011;63771;52.580;9.734;2022-10-16T00:24:10;1.57;;;1.30;;
75191;SDS011;63771;52.580;9.734;2022-10-16T00:26:36;4.55;;;1.75;;
75191;SDS011;63771;52.580;9.734;2022-10-16T00:29:03;1.48;;;1.25;;
75191;SDS011;63771;52.580;9.734;2022-10-16T00:31:29;1.40;;;1.30;;
75191;SDS011;63771;52.580;9.734;2022-10-16T00:33:54;1.45;;;1.40;;
75191;SDS011;63771;52.580;9.734;2022-10-16T00:36:21;2.22;;;2.05;;
75191;SDS011;63771;52.580;9.734;2022-10-16T00:38:52;1.48;;;1.05;;
75191;SDS011;63771;52.580;9.734;2022-10-16T00:41:19;1.27;;;1.00;;
75191;SDS011;63771;52.580;9.734;2022-10-16T00:43:50;7.30;;;1.75;;
75191;SDS011;63771;52.580;9.734;2022-10-16T00:51:30;1.60;;;1.25;;
75191;SDS011;63771;52.580;9.734;2022-10-16T00:53:58;1.38;;;1.00;;
75191;SDS011;63771;52.580;9.734;2022-10-16T00:56:25;2.80;;;1.10;;
75191;SDS011;63771;52.580;9.734;2022-10-16T00:58:51;1.58;;;1.33;;
75191;SDS011;63771;52.580;9.734;2022-10-16T01:01:16;2.80;;;0.98;;
75191;SDS011;63771;52.580;9.734;2022-10-16T01:03:42;1.67;;;1.20;;
75191;SDS011;63771;52.580;9.734;2022-10-16T01:08:51;0.80;;;0.80;;
75191;SDS011;63771;52.580;9.734;2022-10-16T01:11:47;5.90;;;1.30;;
75191;SDS011;63771;52.580;9.734;2022-10-16T01:17:11;1.02;;;1.02;;
75191;SDS011;63771;52.580;9.734;2022-10-16T01:19:51;2.38;;;1.17;;
75191;SDS011;63771;52.580;9.734;2022-10-16T01:22:31;4.80;;;1.35;;
75191;SDS011;63771;52.580;9.734;2022-10-16T01:25:04;1.40;;;1.30;;
75191;SDS011;63771;52.580;9.734;2022-10-16T01:27:32;1.25;;;1.15;;
75191;SDS011;63771;52.580;9.734;2022-10-16T01:30:04;1.55;;;1.45;;
75191;SDS011;63771;52.580;9.734;2022-10-16T01:37:37;1.30;;;1.30;;
75191;SDS011;63771;52.580;9.734;2022-10-16T01:40:08;1.95;;;1.85;;
75191;SDS011;63771;52.580;9.734;2022-10-16T01:42:37;1.30;;;1.30;;
75191;SDS011;63771;52.580;9.734;2022-10-16T01:45:11;1.30;;;1.13;;
75191;SDS011;63771;52.580;9.734;2022-10-16T01:47:40;1.83;;;1.45;;
75191;SDS011;63771;52.580;9.734;2022-10-16T01:50:08;1.50;;;1.40;;
75191;SDS011;63771;52.580;9.734;2022-10-16T01:52:38;1.83;;;1.73;;
75191;SDS011;63771;52.580;9.734;2022-10-16T01:55:08;1.90;;;1.15;;
75191;SDS011;63771;52.580;9.734;2022-10-16T01:57:36;2.05;;;1.92;;
75191;SDS011;63771;52.580;9.734;2022-10-16T02:00:07;1.67;;;1.45;;
75191;SDS011;63771;52.580;9.734;2022-10-16T02:02:35;2.95;;;1.80;;
75191;SDS011;63771;52.580;9.734;2022-10-16T02:05:04;1.83;;;1.73;;
75191;SDS011;63771;52.580;9.734;2022-10-16T02:07:35;1.48;;;1.30;;
75191;SDS011;63771;52.580;9.734;2022-10-16T02:10:00;2.30;;;1.53;;
75191;SDS011;63771;52.580;9.734;2022-10-16T02:12:27;4.32;;;1.83;;
75191;SDS011;63771;52.580;9.734;2022-10-16T02:14:56;1.67;;;1.58;;
75191;SDS011;63771;52.580;9.734;2022-10-16T02:17:21;2.67;;;2.47;;
75191;SDS011;63771;52.580;9.734;2022-10-16T02:19:48;1.40;;;1.40;;
75191;SDS011;63771;52.580;9.734;2022-10-16T02:22:27;4.97;;;1.73;;
75191;SDS011;63771;52.580;9.734;2022-10-16T02:25:06;1.42;;;1.33;;
75191;SDS011;63771;52.580;9.734;2022-10-16T02:30:30;2.05;;;1.88;;
75191;SDS011;63771;52.580;9.734;2022-10-16T02:33:01;2.60;;;2.30;;
75191;SDS011;63771;52.580;9.734;2022-10-16T02:35:30;3.58;;;2.08;;
75191;SDS011;63771;52.580;9.734;2022-10-16T02:37:57;1.95;;;1.63;;
75191;SDS011;63771;52.580;9.734;2022-10-16T02:40:24;2.85;;;1.80;;
75191;SDS011;63771;52.580;9.734;2022-10-16T02:42:51;1.85;;;1.75;;
75191;SDS011;63771;52.580;9.734;2022-10-16T02:45:18;3.30;;;2.45;;
75191;SDS011;63771;52.580;9.734;2022-10-16T02:47:44;3.85;;;1.98;;
75191;SDS011;63771;52.580;9.734;2022-10-16T02:50:09;2.33;;;1.90;;
75191;SDS011;63771;52.580;9.734;2022-10-16T02:52:34;3.00;;;2.00;;
75191;SDS011;63771;52.580;9.734;2022-10-16T02:55:00;7.70;;;2.30;;
75191;SDS011;63771;52.580;9.734;2022-10-16T02:57:25;2.05;;;1.95;;
75191;SDS011;63771;52.580;9.734;2022-10-16T02:59:51;2.33;;;1.67;;
75191;SDS011;63771;52.580;9.734;2022-10-16T03:02:16;1.50;;;1.50;;
75191;SDS011;63771;52.580;9.734;2022-10-16T03:04:42;2.20;;;2.05;;
75191;SDS011;63771;52.580;9.734;2022-10-16T03:07:07;3.50;;;1.67;;
75191;SDS011;63771;52.580;9.734;2022-10-16T03:09:32;1.52;;;1.42;;
75191;SDS011;63771;52.580;9.734;2022-10-16T03:11:58;1.83;;;1.73;;
75191;SDS011;63771;52.580;9.734;2022-10-16T03:14:23;2.35;;;2.17;;
75191;SDS011;63771;52.580;9.734;2022-10-16T03:16:48;2.40;;;2.07;;
75191;SDS011;63771;52.580;9.734;2022-10-16T03:19:16;2.80;;;1.97;;
75191;SDS011;63771;52.580;9.734;2022-10-16T03:21:42;2.08;;;1.98;;
75191;SDS011;63771;52.580;9.734;2022-10-16T03:24:08;2.35;;;2.15;;
75191;SDS011;63771;52.580;9.734;2022-10-16T03:26:33;2.27;;;2.17;;
75191;SDS011;63771;52.580;9.734;2022-10-16T03:28:58;23.10;;;2.83;;
75191;SDS011;63771;52.580;9.734;2022-10-16T03:31:24;3.33;;;2.35;;
75191;SDS011;63771;52.580;9.734;2022-10-16T03:33:49;3.70;;;2.40;;
75191;SDS011;63771;52.580;9.734;2022-10-16T03:36:14;1.73;;;1.67;;
75191;SDS011;63771;52.580;9.734;2022-10-16T03:38:40;3.67;;;2.10;;
75191;SDS011;63771;52.580;9.734;2022-10-16T03:41:05;2.13;;;1.90;;
75191;SDS011;63771;52.580;9.734;2022-10-16T03:43:32;2.50;;;2.30;;
75191;SDS011;63771;52.580;9.734;2022-10-16T03:45:58;3.78;;;2.38;;
75191;SDS011;63771;52.580;9.734;2022-10-16T03:48:23;3.10;;;2.23;;
75191;SDS011;63771;52.580;9.734;2022-10-16T03:50:48;2.80;;;2.37;;
75191;SDS011;63771;52.580;9.734;2022-10-16T03:53:15;2.20;;;2.10;;
75191;SDS011;63771;52.580;9.734;2022-10-16T03:55:41;2.90;;;2.40;;
75191;SDS011;63771;52.580;9.734;2022-10-16T03:58:07;2.70;;;2.25;;
75191;SDS011;63771;52.580;9.734;2022-10-16T04:00:32;3.88;;;2.40;;
75191;SDS011;63771;52.580;9.734;2022-10-16T04:02:58;2.40;;;2.20;;
75191;SDS011;63771;52.580;9.734;2022-10-16T04:05:23;2.70;;;2.50;;
75191;SDS011;63771;52.580;9.734;2022-10-16T04:07:48;2.92;;;2.13;;
75191;SDS011;63771;52.580;9.734;2022-10-16T04:10:14;3.20;;;2.60;;
75191;SDS011;63771;52.580;9.734;2022-10-16T04:12:39;3.03;;;2.57;;
75191;SDS011;63771;52.580;9.734;2022-10-16T04:15:04;2.60;;;2.27;;
75191;SDS011;63771;52.580;9.734;2022-10-16T04:17:30;2.65;;;2.33;;
75191;SDS011;63771;52.580;9.734;2022-10-16T04:19:55;2.30;;;2.10;;
75191;SDS011;63771;52.580;9.734;2022-10-16T04:22:21;3.17;;;2.50;;
75191;SDS011;63771;52.580;9.734;2022-10-16T04:24:46;2.37;;;2.17;;
75191;SDS011;63771;52.580;9.734;2022-10-16T04:27:11;2.47;;;2.27;;
75191;SDS011;63771;52.580;9.734;2022-10-16T04:29:37;5.07;;;2.50;;
75191;SDS011;63771;52.580;9.734;2022-10-16T04:32:02;1.93;;;1.77;;
75191;SDS011;63771;52.580;9.734;2022-10-16T04:34:27;2.40;;;2.20;;
75191;SDS011;63771;52.580;9.734;2022-10-16T04:36:53;2.13;;;2.00;;
75191;SDS011;63771;52.580;9.734;2022-10-16T04:39:18;2.43;;;2.20;;
75191;SDS011;63771;52.580;9.734;2022-10-16T04:41:43;6.00;;;2.72;;
75191;SDS011;63771;52.580;9.734;2022-10-16T04:44:09;4.63;;;2.55;;
75191;SDS011;63771;52.580;9.734;2022-10-16T04:46:34;8.73;;;3.43;;
75191;SDS011;63771;52.580;9.734;2022-10-16T04:48:59;2.30;;;1.95;;
75191;SDS011;63771;52.580;9.734;2022-10-16T04:51:25;2.92;;;2.22;;
75191;SDS011;63771;52.580;9.734;2022-10-16T04:53:52;3.22;;;2.00;;
75191;SDS011;63771;52.580;9.734;2022-10-16T04:56:18;2.42;;;2.33;;
75191;SDS011;63771;52.580;9.734;2022-10-16T04:58:43;3.83;;;3.03;;
75191;SDS011;63771;52.580;9.734;2022-10-16T05:01:08;3.93;;;2.20;;
75191;SDS011;63771;52.580;9.734;2022-10-16T05:03:34;3.08;;;2.13;;
75191;SDS011;63771;52.580;9.734;2022-10-16T05:05:59;4.57;;;2.67;;
75191;SDS011;63771;52.580;9.734;2022-10-16T05:08:24;2.65;;;2.45;;
75191;SDS011;63771;52.580;9.734;2022-10-16T05:10:50;4.60;;;2.50;;
75191;SDS011;63771;52.580;9.734;2022-10-16T05:13:15;2.47;;;2.38;;
75191;SDS011;63771;52.580;9.734;2022-10-16T05:15:40;6.05;;;2.97;;
75191;SDS011;63771;52.580;9.734;2022-10-16T05:18:06;3.80;;;2.30;;
75191;SDS011;63771;52.580;9.734;2022-10-16T05:20:31;4.43;;;2.10;;
75191;SDS011;63771;52.580;9.734;2022-10-16T05:22:57;2.63;;;2.05;;
75191;SDS011;63771;52.580;9.734;2022-10-16T05:25:22;7.03;;;2.40;;
75191;SDS011;63771;52.580;9.734;2022-10-16T05:27:47;4.93;;;2.22;;
75191;SDS011;63771;52.580;9.734;2022-10-16T05:30:13;2.75;;;2.55;;
75191;SDS011;63771;52.580;9.734;2022-10-16T05:32:39;2.72;;;2.53;;
75191;SDS011;63771;52.580;9.734;2022-10-16T05:35:05;4.88;;;2.72;;
75191;SDS011;63771;52.580;9.734;2022-10-16T05:37:30;3.50;;;2.70;;
75191;SDS011;63771;52.580;9.734;2022-10-16T05:39:55;4.40;;;2.87;;
75191;SDS011;63771;52.580;9.734;2022-10-16T05:42:21;3.23;;;2.17;;
75191;SDS011;63771;52.580;9.734;2022-10-16T05:44:46;2.50;;;2.40;;
75191;SDS011;63771;52.580;9.734;2022-10-16T05:47:14;3.40;;;3.10;;
75191;SDS011;63771;52.580;9.734;2022-10-16T05:52:05;2.90;;;2.70;;
75191;SDS011;63771;52.580;9.734;2022-10-16T05:54:30;3.78;;;2.80;;
75191;SDS011;63771;52.580;9.734;2022-10-16T05:56:55;3.57;;;3.27;;
75191;SDS011;63771;52.580;9.734;2022-10-16T05:59:21;3.23;;;2.70;;
75191;SDS011;63771;52.580;9.734;2022-10-16T06:01:46;3.37;;;3.07;;
75191;SDS011;63771;52.580;9.734;2022-10-16T06:04:11;4.67;;;3.10;;
75191;SDS011;63771;52.580;9.734;2022-10-16T06:06:37;4.33;;;3.20;;
75191;SDS011;63771;52.580;9.734;2022-10-16T06:09:02;3.83;;;3.47;;
75191;SDS011;63771;52.580;9.734;2022-10-16T06:11:30;4.25;;;3.88;;
75191;SDS011;63771;52.580;9.734;2022-10-16T06:13:57;3.20;;;3.00;;
75191;SDS011;63771;52.580;9.734;2022-10-16T06:16:25;4.75;;;3.53;;
75191;SDS011;63771;52.580;9.734;2022-10-16T06:18:51;8.20;;;3.00;;
75191;SDS011;63771;52.580;9.734;2022-10-16T06:21:18;3.50;;;2.97;;
75191;SDS011;63771;52.580;9.734;2022-10-16T06:23:46;3.50;;;2.58;;
75191;SDS011;63771;52.580;9.734;2022-10-16T06:26:12;5.75;;;2.80;;
75191;SDS011;63771;52.580;9.734;2022-10-16T06:28:40;7.28;;;3.20;;
75191;SDS011;63771;52.580;9.734;2022-10-16T06:31:06;3.63;;;2.85;;
75191;SDS011;63771;52.580;9.734;2022-10-16T06:33:32;3.28;;;2.83;;
75191;SDS011;63771;52.580;9.734;2022-10-16T06:36:05;3.35;;;3.05;;
75191;SDS011;63771;52.580;9.734;2022-10-16T06:38:35;5.93;;;2.88;;
75191;SDS011;63771;52.580;9.734;2022-10-16T06:41:01;3.90;;;3.20;;
75191;SDS011;63771;52.580;9.734;2022-10-16T06:43:27;3.80;;;3.13;;
75191;SDS011;63771;52.580;9.734;2022-10-16T06:45:57;3.13;;;2.88;;
75191;SDS011;63771;52.580;9.734;2022-10-16T06:48:23;3.75;;;2.42;;
75191;SDS011;63771;52.580;9.734;2022-10-16T06:50:58;4.68;;;2.92;;
75191;SDS011;63771;52.580;9.734;2022-10-16T06:53:25;4.18;;;2.63;;
75191;SDS011;63771;52.580;9.734;2022-10-16T06:55:52;3.53;;;2.97;;
75191;SDS011;63771;52.580;9.734;2022-10-16T06:58:17;5.80;;;2.60;;
75191;SDS011;63771;52.580;9.734;2022-10-16T07:00:43;3.65;;;2.55;;
75191;SDS011;63771;52.580;9.734;2022-10-16T07:03:08;4.80;;;2.70;;
75191;SDS011;63771;52.580;9.734;2022-10-16T07:05:40;3.35;;;2.35;;
75191;SDS011;63771;52.580;9.734;2022-10-16T07:08:06;3.55;;;2.40;;
75191;SDS011;63771;52.580;9.734;2022-10-16T07:10:32;2.00;;;1.90;;
75191;SDS011;63771;52.580;9.734;2022-10-16T07:12:58;2.42;;;2.30;;
75191;SDS011;63771;52.580;9.734;2022-10-16T07:15:24;2.90;;;2.70;;
75191;SDS011;63771;52.580;9.734;2022-10-16T07:17:50;2.90;;;2.05;;
75191;SDS011;63771;52.580;9.734;2022-10-16T07:20:16;2.08;;;1.80;;
75191;SDS011;63771;52.580;9.734;2022-10-16T07:22:41;2.77;;;2.23;;
75191;SDS011;63771;52.580;9.734;2022-10-16T07:25:07;2.08;;;1.98;;
75191;SDS011;63771;52.580;9.734;2022-10-16T07:27:32;3.17;;;2.38;;
75191;SDS011;63771;52.580;9.734;2022-10-16T07:29:58;2.30;;;1.90;;
75191;SDS011;63771;52.580;9.734;2022-10-16T07:32:23;2.90;;;1.90;;
75191;SDS011;63771;52.580;9.734;2022-10-16T07:34:50;3.13;;;1.70;;
75191;SDS011;63771;52.580;9.734;2022-10-16T07:37:16;3.20;;;2.10;;
75191;SDS011;63771;52.580;9.734;2022-10-16T07:39:42;1.73;;;1.63;;
75191;SDS011;63771;52.580;9.734;2022-10-16T07:42:07;2.17;;;1.73;;
75191;SDS011;63771;52.580;9.734;2022-10-16T07:44:32;2.30;;;2.20;;
75191;SDS011;63771;52.580;9.734;2022-10-16T07:46:58;1.77;;;1.67;;
75191;SDS011;63771;52.580;9.734;2022-10-16T07:49:23;1.90;;;1.80;;
75191;SDS011;63771;52.580;9.734;2022-10-16T07:51:48;2.17;;;1.40;;
75191;SDS011;63771;52.580;9.734;2022-10-16T07:54:14;3.43;;;2.20;;
75191;SDS011;63771;52.580;9.734;2022-10-16T07:56:39;1.43;;;1.43;;
75191;SDS011;63771;52.580;9.734;2022-10-16T07:59:04;1.80;;;1.70;;
75191;SDS011;63771;52.580;9.734;2022-10-16T08:01:29;1.97;;;1.87;;
75191;SDS011;63771;52.580;9.734;2022-10-16T08:03:55;1.60;;;1.50;;
75191;SDS011;63771;52.580;9.734;2022-10-16T08:06:20;1.90;;;1.80;;
75191;SDS011;63771;52.580;9.734;2022-10-16T08:08:47;1.73;;;1.60;;
75191;SDS011;63771;52.580;9.734;2022-10-16T08:11:12;2.28;;;1.52;;
75191;SDS011;63771;52.580;9.734;2022-10-16T08:13:39;2.58;;;1.40;;
75191;SDS011;63771;52.580;9.734;2022-10-16T08:16:04;1.90;;;1.33;;
75191;SDS011;63771;52.580;9.734;2022-10-16T08:18:34;1.60;;;1.20;;
75191;SDS011;63771;52.580;9.734;2022-10-16T08:21:00;1.48;;;1.38;;
75191;SDS011;63771;52.580;9.734;2022-10-16T08:23:26;2.53;;;1.50;;
75191;SDS011;63771;52.580;9.734;2022-10-16T08:25:53;1.15;;;1.10;;
75191;SDS011;63771;52.580;9.734;2022-10-16T08:28:19;3.58;;;1.27;;
75191;SDS011;63771;52.580;9.734;2022-10-16T08:30:45;1.50;;;1.42;;
75191;SDS011;63771;52.580;9.734;2022-10-16T08:33:10;2.17;;;1.30;;
75191;SDS011;63771;52.580;9.734;2022-10-16T08:35:36;1.10;;;1.10;;
75191;SDS011;63771;52.580;9.734;2022-10-16T08:38:05;1.40;;;1.30;;
75191;SDS011;63771;52.580;9.734;2022-10-16T08:40:31;2.53;;;1.65;;
75191;SDS011;63771;52.580;9.734;2022-10-16T08:48:49;1.80;;;1.58;;
75191;SDS011;63771;52.580;9.734;2022-10-16T08:51:23;2.25;;;1.55;;
75191;SDS011;63771;52.580;9.734;2022-10-16T08:53:52;1.52;;;1.20;;
75191;SDS011;63771;52.580;9.734;2022-10-16T08:56:20;1.00;;;1.00;;
75191;SDS011;63771;52.580;9.734;2022-10-16T08:58:46;1.00;;;1.00;;
75191;SDS011;63771;52.580;9.734;2022-10-16T09:01:13;1.30;;;1.30;;
75191;SDS011;63771;52.580;9.734;2022-10-16T09:06:21;0.90;;;0.90;;
75191;SDS011;63771;52.580;9.734;2022-10-16T09:11:48;1.10;;;1.10;;
75191;SDS011;63771;52.580;9.734;2022-10-16T09:14:34;1.58;;;1.10;;
75191;SDS011;63771;52.580;9.734;2022-10-16T09:25:28;1.45;;;1.25;;
75191;SDS011;63771;52.580;9.734;2022-10-16T09:27:54;1.75;;;1.65;;
75191;SDS011;63771;52.580;9.734;2022-10-16T09:30:20;1.38;;;0.98;;
75191;SDS011;63771;52.580;9.734;2022-10-16T09:32:47;1.25;;;1.23;;
75191;SDS011;63771;52.580;9.734;2022-10-16T09:35:17;1.20;;;1.10;;
75191;SDS011;63771;52.580;9.734;2022-10-16T09:37:45;0.98;;;0.88;;
75191;SDS011;63771;52.580;9.734;2022-10-16T09:40:26;1.10;;;1.10;;
75191;SDS011;63771;52.580;9.734;2022-10-16T09:43:19;1.58;;;1.48;;
75191;SDS011;63771;52.580;9.734;2022-10-16T09:45:58;2.42;;;1.20;;
75191;SDS011;63771;52.580;9.734;2022-10-16T09:48:24;1.42;;;1.30;;
75191;SDS011;63771;52.580;9.734;2022-10-16T09:51:00;1.13;;;1.13;;
75191;SDS011;63771;52.580;9.734;2022-10-16T09:53:37;1.50;;;1.38;;
75191;SDS011;63771;52.580;9.734;2022-10-16T09:56:04;2.72;;;1.17;;
75191;SDS011;63771;52.580;9.734;2022-10-16T09:58:31;1.02;;;1.02;;
75191;SDS011;63771;52.580;9.734;2022-10-16T10:00:58;1.77;;;1.67;;
75191;SDS011;63771;52.580;9.734;2022-10-16T10:03:34;1.33;;;1.33;;
75191;SDS011;63771;52.580;9.734;2022-10-16T10:06:05;2.17;;;0.85;;
75191;SDS011;63771;52.580;9.734;2022-10-16T10:08:56;1.05;;;0.98;;
75191;SDS011;63771;52.580;9.734;2022-10-16T10:14:16;1.20;;;1.20;;
75191;SDS011;63771;52.580;9.734;2022-10-16T10:16:47;1.30;;;1.30;;
75191;SDS011;63771;52.580;9.734;2022-10-16T10:19:17;2.17;;;0.85;;
75191;SDS011;63771;52.580;9.734;2022-10-16T10:21:44;3.97;;;0.88;;
75191;SDS011;63771;52.580;9.734;2022-10-16T10:24:10;0.98;;;0.95;;
75191;SDS011;63771;52.580;9.734;2022-10-16T10:26:50;0.85;;;0.80;;
75191;SDS011;63771;52.580;9.734;2022-10-16T10:29:46;1.65;;;1.13;;
75191;SDS011;63771;52.580;9.734;2022-10-16T10:32:18;1.48;;;0.80;;
75191;SDS011;63771;52.580;9.734;2022-10-16T10:35:13;2.17;;;1.98;;
75191;SDS011;63771;52.580;9.734;2022-10-16T10:38:01;1.48;;;1.00;;
75191;SDS011;63771;52.580;9.734;2022-10-16T10:43:25;2.67;;;1.00;;
75191;SDS011;63771;52.580;9.734;2022-10-16T10:46:03;3.00;;;1.25;;
75191;SDS011;63771;52.580;9.734;2022-10-16T10:51:22;1.20;;;1.15;;
75191;SDS011;63771;52.580;9.734;2022-10-16T10:56:48;2.75;;;1.17;;
75191;SDS011;63771;52.580;9.734;2022-10-16T11:05:08;1.00;;;0.98;;
75191;SDS011;63771;52.580;9.734;2022-10-16T11:07:39;2.85;;;1.00;;
75191;SDS011;63771;52.580;9.734;2022-10-16T11:10:13;2.70;;;1.33;;
75191;SDS011;63771;52.580;9.734;2022-10-16T11:12:47;1.13;;;0.90;;
75191;SDS011;63771;52.580;9.734;2022-10-16T11:15:25;1.40;;;1.33;;
75191;SDS011;63771;52.580;9.734;2022-10-16T11:23:05;2.15;;;1.50;;
75191;SDS011;63771;52.580;9.734;2022-10-16T11:25:35;1.65;;;1.13;;
75191;SDS011;63771;52.580;9.734;2022-10-16T11:28:20;1.30;;;1.00;;
75191;SDS011;63771;52.580;9.734;2022-10-16T11:30:53;0.93;;;0.93;;
75191;SDS011;63771;52.580;9.734;2022-10-16T11:38:52;2.15;;;1.00;;
75191;SDS011;63771;52.580;9.734;2022-10-16T11:45:07;2.28;;;1.20;;
75191;SDS011;63771;52.580;9.734;2022-10-16T11:53:14;0.95;;;0.95;;
75191;SDS011;63771;52.580;9.734;2022-10-16T11:55:46;1.15;;;1.00;;
75191;SDS011;63771;52.580;9.734;2022-10-16T11:58:22;1.48;;;1.05;;
75191;SDS011;63771;52.580;9.734;2022-10-16T12:01:00;1.48;;;1.00;;
75191;SDS011;63771;52.580;9.734;2022-10-16T12:07:11;3.63;;;1.58;;
75191;SDS011;63771;52.580;9.734;2022-10-16T12:09:47;5.43;;;2.35;;
75191;SDS011;63771;52.580;9.734;2022-10-16T12:17:46;3.00;;;1.33;;
75191;SDS011;63771;52.580;9.734;2022-10-16T12:22:41;3.50;;;1.40;;
75191;SDS011;63771;52.580;9.734;2022-10-16T12:25:23;4.63;;;1.25;;
75191;SDS011;63771;52.580;9.734;2022-10-16T12:28:05;2.53;;;1.92;;
75191;SDS011;63771;52.580;9.734;2022-10-16T12:30:33;1.80;;;1.00;;
75191;SDS011;63771;52.580;9.734;2022-10-16T12:33:02;4.28;;;2.45;;
75191;SDS011;63771;52.580;9.734;2022-10-16T12:35:30;1.10;;;1.08;;
75191;SDS011;63771;52.580;9.734;2022-10-16T12:38:14;4.13;;;1.25;;
75191;SDS011;63771;52.580;9.734;2022-10-16T12:40:45;3.13;;;1.30;;
75191;SDS011;63771;52.580;9.734;2022-10-16T12:45:45;1.40;;;1.30;;
75191;SDS011;63771;52.580;9.734;2022-10-16T12:48:18;1.20;;;1.20;;
75191;SDS011;63771;52.580;9.734;2022-10-16T12:50:46;2.40;;;1.40;;
75191;SDS011;63771;52.580;9.734;2022-10-16T12:53:21;1.73;;;1.42;;
75191;SDS011;63771;52.580;9.734;2022-10-16T12:56:03;1.83;;;1.10;;
75191;SDS011;63771;52.580;9.734;2022-10-16T12:58:41;1.33;;;1.25;;
75191;SDS011;63771;52.580;9.734;2022-10-16T13:01:38;2.33;;;1.10;;
75191;SDS011;63771;52.580;9.734;2022-10-16T13:07:06;2.25;;;1.70;;
75191;SDS011;63771;52.580;9.734;2022-10-16T13:20:33;1.30;;;1.20;;
75191;SDS011;63771;52.580;9.734;2022-10-16T13:23:22;2.47;;;1.30;;
75191;SDS011;63771;52.580;9.734;2022-10-16T13:28:38;1.55;;;1.30;;
75191;SDS011;63771;52.580;9.734;2022-10-16T13:31:04;1.58;;;1.13;;
75191;SDS011;63771;52.580;9.734;2022-10-16T13:33:33;1.33;;;1.25;;
75191;SDS011;63771;52.580;9.734;2022-10-16T13:36:02;1.23;;;1.23;;
75191;SDS011;63771;52.580;9.734;2022-10-16T13:38:29;1.50;;;1.50;;
75191;SDS011;63771;52.580;9.734;2022-10-16T13:41:00;1.58;;;1.30;;
75191;SDS011;63771;52.580;9.734;2022-10-16T13:46:24;1.48;;;1.48;;
75191;SDS011;63771;52.580;9.734;2022-10-16T13:49:00;3.38;;;1.50;;
75191;SDS011;63771;52.580;9.734;2022-10-16T13:51:30;1.52;;;1.20;;
75191;SDS011;63771;52.580;9.734;2022-10-16T13:53:56;1.90;;;1.48;;
75191;SDS011;63771;52.580;9.734;2022-10-16T13:56:24;1.77;;;1.25;;
75191;SDS011;63771;52.580;9.734;2022-10-16T13:59:03;2.70;;;1.35;;
75191;SDS011;63771;52.580;9.734;2022-10-16T14:01:46;2.05;;;1.38;;
75191;SDS011;63771;52.580;9.734;2022-10-16T14:04:12;3.50;;;1.85;;
75191;SDS011;63771;52.580;9.734;2022-10-16T14:06:41;1.63;;;1.52;;
75191;SDS011;63771;52.580;9.734;2022-10-16T14:11:53;1.20;;;1.20;;
75191;SDS011;63771;52.580;9.734;2022-10-16T14:14:21;1.35;;;1.35;;
75191;SDS011;63771;52.580;9.734;2022-10-16T14:16:48;2.13;;;1.33;;
75191;SDS011;63771;52.580;9.734;2022-10-16T14:19:15;2.80;;;1.75;;
75191;SDS011;63771;52.580;9.734;2022-10-16T14:21:47;2.33;;;1.63;;
75191;SDS011;63771;52.580;9.734;2022-10-16T14:24:14;1.48;;;1.48;;
75191;SDS011;63771;52.580;9.734;2022-10-16T14:26:50;2.03;;;1.23;;
75191;SDS011;63771;52.580;9.734;2022-10-16T14:29:19;2.10;;;1.27;;
75191;SDS011;63771;52.580;9.734;2022-10-16T14:31:58;2.15;;;1.58;;
75191;SDS011;63771;52.580;9.734;2022-10-16T14:36:52;2.83;;;1.35;;
75191;SDS011;63771;52.580;9.734;2022-10-16T14:39:19;2.85;;;1.58;;
75191;SDS011;63771;52.580;9.734;2022-10-16T14:41:47;1.27;;;1.20;;
75191;SDS011;63771;52.580;9.734;2022-10-16T14:44:13;1.70;;;1.30;;
75191;SDS011;63771;52.580;9.734;2022-10-16T14:46:42;3.30;;;1.20;;
75191;SDS011;63771;52.580;9.734;2022-10-16T14:51:34;1.83;;;1.35;;
75191;SDS011;63771;52.580;9.734;2022-10-16T14:54:00;2.05;;;1.05;;
75191;SDS011;63771;52.580;9.734;2022-10-16T14:56:30;3.13;;;1.10;;
75191;SDS011;63771;52.580;9.734;2022-10-16T14:59:00;4.13;;;1.95;;
75191;SDS011;63771;52.580;9.734;2022-10-16T15:01:27;1.88;;;1.30;;
75191;SDS011;63771;52.580;9.734;2022-10-16T15:03:52;1.60;;;1.53;;
75191;SDS011;63771;52.580;9.734;2022-10-16T15:06:19;1.95;;;1.40;;
75191;SDS011;63771;52.580;9.734;2022-10-16T15:08:46;1.55;;;1.50;;
75191;SDS011;63771;52.580;9.734;2022-10-16T15:11:17;1.55;;;1.45;;
75191;SDS011;63771;52.580;9.734;2022-10-16T15:13:44;2.00;;;1.70;;
75191;SDS011;63771;52.580;9.734;2022-10-16T15:16:15;2.30;;;1.70;;
75191;SDS011;63771;52.580;9.734;2022-10-16T15:18:41;1.25;;;1.15;;
75191;SDS011;63771;52.580;9.734;2022-10-16T15:21:07;1.52;;;1.42;;
75191;SDS011;63771;52.580;9.734;2022-10-16T15:23:49;1.40;;;1.27;;
75191;SDS011;63771;52.580;9.734;2022-10-16T15:26:15;2.15;;;1.25;;
75191;SDS011;63771;52.580;9.734;2022-10-16T15:28:40;1.50;;;1.50;;
75191;SDS011;63771;52.580;9.734;2022-10-16T15:31:06;1.50;;;1.50;;
75191;SDS011;63771;52.580;9.734;2022-10-16T15:33:31;1.73;;;1.40;;
75191;SDS011;63771;52.580;9.734;2022-10-16T15:38:25;1.40;;;1.30;;
75191;SDS011;63771;52.580;9.734;2022-10-16T15:40:52;3.40;;;1.40;;
75191;SDS011;63771;52.580;9.734;2022-10-16T15:43:17;3.60;;;1.48;;
75191;SDS011;63771;52.580;9.734;2022-10-16T15:45:43;2.33;;;1.70;;
75191;SDS011;63771;52.580;9.734;2022-10-16T15:48:13;1.80;;;1.50;;
75191;SDS011;63771;52.580;9.734;2022-10-16T15:50:38;2.75;;;1.48;;
75191;SDS011;63771;52.580;9.734;2022-10-16T15:53:04;6.18;;;1.45;;
75191;SDS011;63771;52.580;9.734;2022-10-16T15:55:30;2.08;;;1.40;;
75191;SDS011;63771;52.580;9.734;2022-10-16T15:57:55;1.83;;;1.63;;
75191;SDS011;63771;52.580;9.734;2022-10-16T16:00:21;1.52;;;1.42;;
75191;SDS011;63771;52.580;9.734;2022-10-16T16:02:50;2.33;;;1.70;;
75191;SDS011;63771;52.580;9.734;2022-10-16T16:05:17;1.98;;;1.88;;
75191;SDS011;63771;52.580;9.734;2022-10-16T16:07:42;2.13;;;1.70;;
75191;SDS011;63771;52.580;9.734;2022-10-16T16:10:09;3.45;;;2.28;;
75191;SDS011;63771;52.580;9.734;2022-10-16T16:12:36;2.40;;;2.20;;
75191;SDS011;63771;52.580;9.734;2022-10-16T16:15:02;2.75;;;1.52;;
75191;SDS011;63771;52.580;9.734;2022-10-16T16:17:30;1.83;;;1.70;;
75191;SDS011;63771;52.580;9.734;2022-10-16T16:19:55;3.88;;;2.45;;
75191;SDS011;63771;52.580;9.734;2022-10-16T16:22:21;4.23;;;1.60;;
75191;SDS011;63771;52.580;9.734;2022-10-16T16:24:46;2.17;;;1.90;;
75191;SDS011;63771;52.580;9.734;2022-10-16T16:27:11;2.70;;;1.57;;
75191;SDS011;63771;52.580;9.734;2022-10-16T16:29:38;2.05;;;1.75;;
75191;SDS011;63771;52.580;9.734;2022-10-16T16:32:03;3.03;;;2.20;;
75191;SDS011;63771;52.580;9.734;2022-10-16T16:34:29;3.00;;;1.77;;
75191;SDS011;63771;52.580;9.734;2022-10-16T16:36:54;2.65;;;2.10;;
75191;SDS011;63771;52.580;9.734;2022-10-16T16:39:20;2.85;;;2.53;;
75191;SDS011;63771;52.580;9.734;2022-10-16T16:41:46;5.05;;;2.97;;
75191;SDS011;63771;52.580;9.734;2022-10-16T16:44:12;6.68;;;2.10;;
75191;SDS011;63771;52.580;9.734;2022-10-16T16:46:38;2.30;;;2.17;;
75191;SDS011;63771;52.580;9.734;2022-10-16T16:49:04;3.60;;;2.60;;
75191;SDS011;63771;52.580;9.734;2022-10-16T16:51:31;3.28;;;2.72;;
75191;SDS011;63771;52.580;9.734;2022-10-16T16:53:57;3.85;;;3.17;;
75191;SDS011;63771;52.580;9.734;2022-10-16T16:56:24;3.40;;;3.10;;
75191;SDS011;63771;52.580;9.734;2022-10-16T16:58:51;4.55;;;2.40;;